Whiting Field Naval Air Station north Airport Milton US
ICAO: KNSE
IATA: NSE
Category: Medium
Scheduled Services: No

Elevation: 199 ft
TransAlt. 18000 ft.

Airport Communications:
PENSACOLA APP/DEP:127.35
ATIS:29.032
CLNC DEL:25.777
GND:25.115
BASE OPS:23.37
PMSV METRO:31.695
TWR:121.4

KNSE Zoom In..

Runways:

(A) RW 05 length 6002 ft width 200 ft
---- / hdg 49

(B) RW 14 length 6002 ft width 200 ft
ILS 111.75 / hdg 139

(C) RW 23 length 6002 ft width 200 ft
---- / hdg 229

(D) RW 32 length 6002 ft width 200 ft
---- / hdg 319

Location; KNSE
Day. 19 / Time. 20.56 Zulu
* Altimeter: 30.06
* Temperature: 27° c. 80.6°f.
* Wind from: 340° Speed 07 kn with Gusts up to 16 kn.
Dewpoint: 09° c.
Visibility: 10 Statute Miles.
Clouds: Few 5000 ft.
Clouds: Few 25000 ft.
Conditions: Smoke.

KNSE 192056Z 34007G16KT 290V010 10SM FEW050 FEW250 27/09 A3006 RMK AO2 SLP166 FU NE T02670094 58015 $


Wind From 340°
Speed 07 kn.

  YouTube Music Video
 
jpsmedia.com for Web Design  worldairports.se 2018   terms of use